Pensacola Regional Airport
KPNS : now visible

Airfield :











YOU CAN JOIN US ON...

 
LOGIN :

Register | Disclaimer

   EN    FR    IT 

 









Legend :    VFR   Marginal VFR   IFR   Intensive IFR   Very Intensive IFR
Visi :
Ceiling :
>= 8 km
>= 3000ft
5 to 8 km
1000 to 3000 ft
1500m to 5 km
500 to 1000 ft
800 to 1500m
200 to 500 ft
< 800m
< 200 ft
Symbols :   Thunderstorms  Fog  Heavy snow  Heavy precipitations  Wind > 20 kt






- Airport Elevation : 121 ft
- IATA code : PNS


KPNS - Pensacola Regional

CURRENT METAR :
  • 051853Z VRB04KT 10SM CLR 19/02 A3012 RMK AO2 SLP202 T01890022

EXPIRED METARs :
  • 051753Z 16006KT 10SM CLR 18/02 A3014 RMK AO2 SLP209 T01830022 10183 20050 58009 $
  • 051653Z 00000KT 10SM CLR 17/04 A3018 RMK AO2 SLP220 T01720044 $

TAF KPNS
Valid from the 05 at 18:00 until the 06 at 18:00 UTC


051727Z 0518/0618 00000KT P6SM SKC
FM060000 16003KT P6SM BKN250
FM061500 16006KT P6SM BKN100



MET'MAP, your aeronautical weather chart ! - Copyright ORBIFLY December 2007 - Disclaimer

ORBIFLY MET'MAP TEAM :

Programming & Development : Alexandra Zaïnal
Concept & original design : Baudouin d'Aumeries
Assistance for programming : Marc-Olivier Méhu
Technical & hardware support : Manuel Goepfert

Contact : metmap@orbifly.com




SOURCES & CREDITS :

   NOAA       Earth
Advisory